Time;durP1;ratioP1;P1;durP2;ratioP2;P2;SDS_P1;SDS_P2;PMS_P1;PMS_P2;Temp;Humidity;BMP_temperature;BMP_pressure;BME280_temperature;BME280_humidity;BME280_pressure;Samples;Min_cycle;Max_cycle;Signal;HPM_P1;HPM_P2
2023/02/24 00:01:17;;;;;;;30.40;15.10;;;;;;;;;;5033070;28;20025;-78
2023/02/24 00:03:43;;;;;;;29.13;16.38;;;;;;;;;;5032435;28;20033;-78
2023/02/24 00:06:10;;;;;;;26.58;15.90;;;;;;;;;;5032683;28;20025;-73
2023/02/24 00:08:42;;;;;;;27.10;15.75;;;;;;;;;;5032502;28;20030;-71
2023/02/24 00:11:10;;;;;;;29.98;17.00;;;;;;;;;;5032881;28;20049;-70
2023/02/24 00:13:36;;;;;;;27.33;15.95;;;;;;;;;;5032439;28;20069;-77
2023/02/24 00:16:03;;;;;;;34.17;17.52;;;;;;;;;;5032196;28;20111;-75
2023/02/24 00:18:31;;;;;;;29.77;17.13;;;;;;;;;;5032668;28;20024;-73
2023/02/24 00:20:57;;;;;;;29.00;17.15;;;;;;;;;;5032456;28;20026;-69
2023/02/24 00:23:23;;;;;;;25.27;17.00;;;;;;;;;;5032488;28;20115;-78
2023/02/24 00:25:58;;;;;;;27.55;17.15;;;;;;;;;;5031959;28;20036;-71
2023/02/24 00:28:24;;;;;;;26.73;17.48;;;;;;;;;;5047353;28;20079;-61
2023/02/24 00:30:50;;;;;;;30.38;17.30;;;;;;;;;;5051829;28;20036;-79
2023/02/24 00:33:20;;;;;;;29.80;17.75;;;;;;;;;;5052178;28;20029;-73
2023/02/24 00:35:46;;;;;;;29.65;16.67;;;;;;;;;;5045761;28;20640;-78
2023/02/24 00:38:12;;;;;;;29.42;18.00;;;;;;;;;;5052048;28;20106;-78
2023/02/24 00:40:40;;;;;;;32.88;18.55;;;;;;;;;;5051810;28;20028;-61
2023/02/24 00:43:07;;;;;;;31.98;18.90;;;;;;;;;;5051777;28;20115;-75
2023/02/24 00:45:37;;;;;;;33.42;18.25;;;;;;;;;;5032659;28;20037;-61
2023/02/24 00:48:04;;;;;;;32.33;18.08;;;;;;;;;;5031556;28;20041;-63
2023/02/24 00:50:32;;;;;;;33.92;20.15;;;;;;;;;;5031280;28;20052;-60
2023/02/24 00:52:58;;;;;;;32.72;19.48;;;;;;;;;;5031588;28;20565;-61
2023/02/24 00:55:26;;;;;;;31.15;18.77;;;;;;;;;;5029883;28;20378;-69
2023/02/24 00:57:52;;;;;;;33.63;19.00;;;;;;;;;;5031453;28;20526;-60
2023/02/24 01:00:19;;;;;;;32.53;19.58;;;;;;;;;;5031460;28;20038;-60
2023/02/24 01:02:46;;;;;;;32.85;20.20;;;;;;;;;;5031067;28;20057;-78
2023/02/24 01:05:12;;;;;;;31.48;19.95;;;;;;;;;;5030592;28;20022;-72
2023/02/24 01:07:38;;;;;;;35.15;19.77;;;;;;;;;;5045296;28;20052;-60
2023/02/24 01:10:07;;;;;;;35.60;20.00;;;;;;;;;;5050109;28;20037;-63
2023/02/24 01:13:07;;;;;;;32.53;20.30;;;;;;;;;;5050386;28;20648;-61
2023/02/24 01:15:26;;;;;;;;;;;;;;;;;;5050094;28;20119;-60
2023/02/24 01:17:52;;;;;;;34.63;19.88;;;;;;;;;;5050882;28;20385;-60
2023/02/24 01:20:18;;;;;;;37.13;21.35;;;;;;;;;;5051451;28;20418;-67
2023/02/24 01:22:49;;;;;;;35.80;20.77;;;;;;;;;;5051260;28;20029;-59
2023/02/24 01:25:15;;;;;;;32.55;19.95;;;;;;;;;;5050941;28;20017;-71
2023/02/24 01:27:41;;;;;;;36.08;20.73;;;;;;;;;;5051008;28;20033;-78
2023/02/24 01:30:08;;;;;;;36.85;21.25;;;;;;;;;;5051127;28;20032;-64
2023/02/24 01:32:34;;;;;;;36.65;21.63;;;;;;;;;;5050785;28;20109;-61
2023/02/24 01:35:00;;;;;;;37.50;22.23;;;;;;;;;;5051233;28;20507;-60
2023/02/24 01:37:27;;;;;;;34.92;21.58;;;;;;;;;;5049969;28;20540;-61
2023/02/24 01:39:54;;;;;;;34.58;20.88;;;;;;;;;;5050913;28;20036;-60
2023/02/24 01:42:22;;;;;;;39.65;21.38;;;;;;;;;;5050822;28;20381;-65
2023/02/24 01:44:50;;;;;;;31.88;21.13;;;;;;;;;;5050907;28;20021;-61
2023/02/24 01:47:19;;;;;;;32.83;21.10;;;;;;;;;;5050505;28;20066;-60
2023/02/24 01:49:46;;;;;;;32.50;20.08;;;;;;;;;;5050851;28;20028;-75
2023/02/24 01:52:23;;;;;;;34.15;20.10;;;;;;;;;;5050341;28;20029;-61
2023/02/24 01:54:54;;;;;;;36.95;20.98;;;;;;;;;;5050357;28;20103;-61
2023/02/24 01:57:22;;;;;;;30.52;19.15;;;;;;;;;;5050650;28;20472;-61
2023/02/24 01:59:50;;;;;;;34.38;20.63;;;;;;;;;;5050723;28;20037;-61
2023/02/24 02:02:17;;;;;;;33.95;21.35;;;;;;;;;;5046848;28;20040;-60
2023/02/24 02:04:46;;;;;;;35.22;21.13;;;;;;;;;;5030463;28;20038;-61
2023/02/24 02:07:14;;;;;;;31.52;20.55;;;;;;;;;;5030237;28;20021;-60
2023/02/24 02:09:40;;;;;;;31.83;21.05;;;;;;;;;;5030399;28;20021;-74
2023/02/24 02:12:08;;;;;;;39.60;21.20;;;;;;;;;;5028856;28;20334;-60
2023/02/24 02:14:35;;;;;;;34.45;20.35;;;;;;;;;;5030437;28;20056;-60
2023/02/24 02:17:01;;;;;;;33.33;20.67;;;;;;;;;;5030772;28;20397;-60
2023/02/24 02:19:39;;;;;;;33.00;19.23;;;;;;;;;;5030297;28;20029;-61
2023/02/24 02:22:28;;;;;;;35.05;21.05;;;;;;;;;;5030740;28;20030;-61
2023/02/24 02:25:00;;;;;;;33.75;20.70;;;;;;;;;;5030147;28;20032;-68
2023/02/24 02:27:30;;;;;;;33.17;21.02;;;;;;;;;;5030437;28;20034;-61
2023/02/24 02:30:05;;;;;;;29.88;19.50;;;;;;;;;;5029988;28;20120;-61
2023/02/24 02:32:50;;;;;;;33.47;20.20;;;;;;;;;;5030327;28;20047;-61
2023/02/24 02:35:46;;;;;;;32.92;19.55;;;;;;;;;;5030245;28;20021;-60
2023/02/24 02:38:24;;;;;;;34.33;19.20;;;;;;;;;;5027982;28;20037;-60
2023/02/24 02:40:56;;;;;;;30.70;18.60;;;;;;;;;;5030081;28;20028;-78
2023/02/24 02:43:24;;;;;;;28.45;17.80;;;;;;;;;;5020474;28;20401;-60
2023/02/24 02:45:57;;;;;;;27.70;17.27;;;;;;;;;;5036043;28;20029;-61
2023/02/24 02:48:30;;;;;;;30.48;17.02;;;;;;;;;;5044898;28;20069;-61
2023/02/24 02:51:03;;;;;;;29.98;17.60;;;;;;;;;;5051587;28;20599;-68
2023/02/24 02:53:48;;;;;;;30.27;18.25;;;;;;;;;;5051400;28;20040;-61
2023/02/24 02:56:31;;;;;;;26.50;16.58;;;;;;;;;;5051931;28;20091;-61
2023/02/24 02:58:58;;;;;;;26.38;16.95;;;;;;;;;;5051507;28;20116;-61
2023/02/24 03:01:27;;;;;;;27.92;16.50;;;;;;;;;;5052514;28;20037;-61
2023/02/24 03:03:57;;;;;;;26.00;16.55;;;;;;;;;;5053374;28;20028;-60
2023/02/24 03:06:23;;;;;;;25.83;16.27;;;;;;;;;;5051685;28;20471;-60
2023/02/24 03:09:14;;;;;;;26.38;16.05;;;;;;;;;;5051247;28;20037;-61
2023/02/24 03:11:47;;;;;;;26.77;16.42;;;;;;;;;;5050880;28;20146;-77
2023/02/24 03:14:15;;;;;;;27.27;16.00;;;;;;;;;;5044742;28;20045;-61
2023/02/24 03:16:44;;;;;;;25.15;15.70;;;;;;;;;;5033197;28;20033;-61
2023/02/24 03:19:13;;;;;;;24.25;15.93;;;;;;;;;;5032973;28;20033;-70
2023/02/24 03:21:44;;;;;;;24.17;15.95;;;;;;;;;;5033421;28;20029;-63
2023/02/24 03:24:10;;;;;;;26.20;15.40;;;;;;;;;;5033275;28;20037;-74
2023/02/24 03:26:45;;;;;;;28.90;16.35;;;;;;;;;;5033126;28;20040;-60
2023/02/24 03:29:22;;;;;;;26.70;16.10;;;;;;;;;;5032973;28;20065;-61
2023/02/24 03:31:58;;;;;;;29.40;16.08;;;;;;;;;;5033301;28;20022;-61
2023/02/24 03:34:45;;;;;;;26.95;16.55;;;;;;;;;;5033119;28;20034;-60
2023/02/24 03:37:11;;;;;;;30.25;17.75;;;;;;;;;;5033063;28;20052;-61
2023/02/24 03:39:37;;;;;;;30.15;17.73;;;;;;;;;;5033439;28;20409;-61
2023/02/24 03:42:22;;;;;;;31.77;17.02;;;;;;;;;;5032685;28;20037;-60
2023/02/24 03:44:49;;;;;;;30.17;17.48;;;;;;;;;;5033079;28;20036;-63
2023/02/24 03:47:16;;;;;;;27.65;17.52;;;;;;;;;;5035508;28;20037;-61
2023/02/24 03:49:42;;;;;;;28.73;17.45;;;;;;;;;;5033286;28;20029;-60
2023/02/24 03:52:11;;;;;;;30.48;16.40;;;;;;;;;;5033103;28;20138;-75
2023/02/24 03:54:46;;;;;;;28.48;17.13;;;;;;;;;;5033385;28;20083;-60
2023/02/24 03:57:21;;;;;;;27.70;17.48;;;;;;;;;;5048043;28;20033;-60
2023/02/24 03:59:57;;;;;;;31.65;16.98;;;;;;;;;;5052941;28;20028;-60
2023/02/24 04:02:28;;;;;;;31.10;17.50;;;;;;;;;;5052555;28;20029;-60
2023/02/24 04:04:57;;;;;;;33.25;17.38;;;;;;;;;;5052760;28;20039;-60
2023/02/24 04:07:44;;;;;;;30.02;16.65;;;;;;;;;;5052730;28;20104;-61
2023/02/24 04:10:11;;;;;;;27.90;16.67;;;;;;;;;;5052549;28;20037;-77
2023/02/24 04:12:41;;;;;;;29.45;16.27;;;;;;;;;;5037655;28;20119;-73
2023/02/24 04:15:30;;;;;;;26.63;16.17;;;;;;;;;;5032761;28;20026;-77
2023/02/24 04:17:58;;;;;;;28.02;16.80;;;;;;;;;;5030031;28;20039;-73
2023/02/24 04:20:28;;;;;;;27.85;17.48;;;;;;;;;;5030229;28;20053;-62
2023/02/24 04:22:58;;;;;;;30.63;16.40;;;;;;;;;;5030444;28;20469;-60
2023/02/24 04:25:25;;;;;;;31.58;16.02;;;;;;;;;;5030257;28;20025;-61
2023/02/24 04:27:57;;;;;;;27.55;16.33;;;;;;;;;;5029871;28;20030;-60
2023/02/24 04:30:25;;;;;;;25.80;16.38;;;;;;;;;;5030041;28;20033;-60
2023/02/24 04:32:51;;;;;;;27.73;15.60;;;;;;;;;;5030027;28;20033;-60
2023/02/24 04:35:19;;;;;;;27.40;16.20;;;;;;;;;;5030056;28;20485;-60
2023/02/24 04:37:45;;;;;;;27.35;16.42;;;;;;;;;;5029699;28;20554;-63
2023/02/24 04:40:15;;;;;;;26.92;17.33;;;;;;;;;;5029964;28;20520;-60
2023/02/24 04:42:50;;;;;;;25.63;16.08;;;;;;;;;;5029634;28;20489;-77
2023/02/24 04:45:17;;;;;;;25.70;16.02;;;;;;;;;;5029803;28;20037;-61
2023/02/24 04:47:50;;;;;;;27.10;15.90;;;;;;;;;;5029706;28;20038;-76
2023/02/24 04:50:24;;;;;;;25.83;15.43;;;;;;;;;;5029767;28;20076;-62
2023/02/24 04:52:50;;;;;;;26.67;15.57;;;;;;;;;;5029728;28;20084;-71
2023/02/24 04:55:16;;;;;;;26.88;15.27;;;;;;;;;;5031145;28;20040;-70
2023/02/24 04:57:44;;;;;;;26.00;14.95;;;;;;;;;;5031813;28;20034;-61
2023/02/24 05:00:21;;;;;;;25.33;15.30;;;;;;;;;;5032043;28;20025;-75
2023/02/24 05:02:51;;;;;;;27.50;14.85;;;;;;;;;;5031640;28;20112;-61
2023/02/24 05:05:24;;;;;;;26.08;15.60;;;;;;;;;;5032105;28;20133;-61
2023/02/24 05:07:50;;;;;;;25.42;15.38;;;;;;;;;;5031611;28;20025;-61
2023/02/24 05:10:17;;;;;;;29.42;15.52;;;;;;;;;;5031633;28;20030;-61
2023/02/24 05:12:43;;;;;;;28.08;15.38;;;;;;;;;;5030454;28;20603;-61
2023/02/24 05:15:11;;;;;;;30.25;16.23;;;;;;;;;;5031785;28;20021;-60
2023/02/24 05:17:38;;;;;;;29.23;16.15;;;;;;;;;;5031663;28;20072;-61
2023/02/24 05:22:52;;;;;;;31.73;16.73;;;;;;;;;;5046185;28;20507;-61
2023/02/24 05:25:19;;;;;;;29.38;16.52;;;;;;;;;;5051265;28;20067;-72
2023/02/24 05:27:46;;;;;;;28.85;16.50;;;;;;;;;;5050775;28;20132;-60
2023/02/24 05:30:13;;;;;;;26.77;16.02;;;;;;;;;;5051165;28;20074;-62
2023/02/24 05:32:39;;;;;;;28.27;16.10;;;;;;;;;;5050858;28;20033;-61
2023/02/24 05:35:05;;;;;;;27.40;15.82;;;;;;;;;;5051043;28;20017;-61
2023/02/24 05:37:32;;;;;;;28.38;16.23;;;;;;;;;;5050827;28;20155;-62
2023/02/24 05:39:59;;;;;;;28.77;15.57;;;;;;;;;;5051100;28;20025;-61
2023/02/24 05:42:26;;;;;;;28.25;16.63;;;;;;;;;;5050689;28;20029;-63
2023/02/24 05:44:53;;;;;;;26.10;16.20;;;;;;;;;;5050877;28;20086;-61
2023/02/24 05:47:22;;;;;;;26.05;16.13;;;;;;;;;;5050750;28;20472;-61
2023/02/24 05:49:50;;;;;;;27.95;16.50;;;;;;;;;;5050896;28;20028;-61
2023/02/24 05:52:17;;;;;;;25.45;15.77;;;;;;;;;;5050110;28;20033;-72
2023/02/24 05:54:44;;;;;;;26.15;17.10;;;;;;;;;;5050495;28;20068;-76
2023/02/24 05:57:15;;;;;;;26.42;16.17;;;;;;;;;;5050548;28;20108;-61
2023/02/24 05:59:43;;;;;;;32.08;17.98;;;;;;;;;;5050471;28;20167;-68
2023/02/24 06:02:11;;;;;;;26.67;18.27;;;;;;;;;;5050437;28;20472;-71
2023/02/24 06:04:39;;;;;;;30.17;18.35;;;;;;;;;;5050210;28;20022;-62
2023/02/24 06:07:13;;;;;;;33.65;18.80;;;;;;;;;;5050389;28;20125;-61
2023/02/24 06:09:41;;;;;;;29.48;18.33;;;;;;;;;;5049778;28;20111;-61
2023/02/24 06:12:08;;;;;;;30.80;18.75;;;;;;;;;;5049198;28;20075;-61
2023/02/24 06:14:34;;;;;;;35.90;18.90;;;;;;;;;;5050065;28;20502;-61
2023/02/24 06:17:03;;;;;;;36.03;18.60;;;;;;;;;;5050288;28;20044;-60
2023/02/24 06:19:32;;;;;;;38.40;20.13;;;;;;;;;;5050296;28;20025;-66
2023/02/24 06:22:01;;;;;;;35.80;20.10;;;;;;;;;;5050131;28;20025;-61
2023/02/24 06:24:32;;;;;;;38.47;21.48;;;;;;;;;;5049986;28;20025;-73
2023/02/24 06:27:03;;;;;;;37.00;19.98;;;;;;;;;;5050100;28;20527;-66
2023/02/24 06:29:30;;;;;;;33.20;16.40;;;;;;;;;;5050358;28;20033;-61
2023/02/24 06:31:56;;;;;;;41.60;21.33;;;;;;;;;;5049853;28;20246;-64
2023/02/24 06:34:23;;;;;;;41.78;22.08;;;;;;;;;;5043251;28;20028;-61
2023/02/24 06:36:51;;;;;;;39.55;21.35;;;;;;;;;;5049895;28;20384;-62
2023/02/24 06:39:17;;;;;;;38.17;21.08;;;;;;;;;;5042026;28;20026;-61
2023/02/24 06:41:43;;;;;;;37.90;20.85;;;;;;;;;;5029776;28;20079;-61
2023/02/24 06:44:09;;;;;;;32.20;19.63;;;;;;;;;;5030236;28;20374;-77
2023/02/24 06:46:36;;;;;;;33.97;18.38;;;;;;;;;;5030110;28;20060;-69
2023/02/24 06:49:02;;;;;;;33.50;19.17;;;;;;;;;;5030348;28;20034;-74
2023/02/24 06:51:29;;;;;;;36.08;19.35;;;;;;;;;;5030281;28;20030;-73
2023/02/24 06:53:58;;;;;;;31.25;17.65;;;;;;;;;;5029901;28;20475;-69
2023/02/24 06:56:25;;;;;;;29.33;17.95;;;;;;;;;;5029810;28;20450;-62
2023/02/24 06:58:54;;;;;;;30.05;16.98;;;;;;;;;;5030081;28;20075;-75
2023/02/24 07:01:27;;;;;;;33.33;18.65;;;;;;;;;;5029740;28;20032;-62
2023/02/24 07:06:28;;;;;;;31.98;17.98;;;;;;;;;;5029916;28;20030;-77
2023/02/24 07:08:54;;;;;;;34.95;17.48;;;;;;;;;;5029782;28;20038;-67
2023/02/24 07:11:20;;;;;;;28.40;16.83;;;;;;;;;;5029606;28;20053;-61
2023/02/24 07:13:47;;;;;;;27.30;16.33;;;;;;;;;;5029755;28;20046;-60
2023/02/24 07:16:14;;;;;;;28.70;16.02;;;;;;;;;;5029855;28;20021;-61
2023/02/24 07:18:41;;;;;;;27.65;16.75;;;;;;;;;;5029754;28;20080;-63
2023/02/24 07:21:10;;;;;;;27.27;16.20;;;;;;;;;;5029859;28;20144;-64
2023/02/24 07:23:40;;;;;;;25.02;15.65;;;;;;;;;;5038546;28;20018;-61
2023/02/24 07:26:10;;;;;;;28.00;16.02;;;;;;;;;;5028920;28;20044;-67
2023/02/24 07:28:38;;;;;;;28.25;17.00;;;;;;;;;;5034119;28;20528;-61
2023/02/24 07:31:07;;;;;;;24.60;16.30;;;;;;;;;;5041271;28;20400;-62
2023/02/24 07:33:34;;;;;;;27.75;16.98;;;;;;;;;;5041988;28;20033;-71
2023/02/24 07:36:07;;;;;;;24.33;15.77;;;;;;;;;;5045082;28;20028;-61
2023/02/24 07:38:33;;;;;;;27.55;17.33;;;;;;;;;;5044474;28;20480;-62
2023/02/24 07:40:59;;;;;;;24.92;15.95;;;;;;;;;;5044238;28;20035;-75
2023/02/24 07:43:26;;;;;;;27.23;18.30;;;;;;;;;;5042958;28;20131;-62
2023/02/24 07:45:52;;;;;;;25.33;17.42;;;;;;;;;;5040924;28;20103;-67
2023/02/24 07:48:18;;;;;;;26.27;16.80;;;;;;;;;;5042479;28;20020;-64
2023/02/24 07:50:44;;;;;;;29.23;16.95;;;;;;;;;;5042026;28;20045;-62
2023/02/24 07:53:10;;;;;;;25.27;16.17;;;;;;;;;;5040700;28;20033;-61
2023/02/24 07:55:36;;;;;;;25.38;16.42;;;;;;;;;;5042762;28;20018;-61
2023/02/24 07:58:04;;;;;;;26.92;15.73;;;;;;;;;;5041255;28;20029;-60
2023/02/24 08:00:48;;;;;;;26.73;15.60;;;;;;;;;;5040719;28;20460;-61
2023/02/24 08:03:14;;;;;;;27.42;17.00;;;;;;;;;;5040681;28;20036;-70
2023/02/24 08:05:42;;;;;;;27.23;16.30;;;;;;;;;;5039738;28;20026;-59
2023/02/24 08:08:08;;;;;;;25.92;16.80;;;;;;;;;;5038249;28;20029;-61
2023/02/24 08:10:36;;;;;;;29.23;17.40;;;;;;;;;;5042596;28;20021;-60
2023/02/24 08:13:03;;;;;;;25.73;15.88;;;;;;;;;;5052101;28;20039;-61
2023/02/24 08:15:32;;;;;;;29.52;18.05;;;;;;;;;;5052446;28;20401;-60
2023/02/24 08:17:59;;;;;;;30.65;17.95;;;;;;;;;;5047653;28;20018;-69
2023/02/24 08:20:34;;;;;;;30.52;17.90;;;;;;;;;;5042657;28;20021;-67
2023/02/24 08:23:05;;;;;;;29.10;16.55;;;;;;;;;;5037748;28;20116;-61
2023/02/24 08:25:37;;;;;;;31.27;17.88;;;;;;;;;;5031189;28;20053;-61
2023/02/24 08:28:05;;;;;;;29.42;18.35;;;;;;;;;;5030685;28;20033;-72
2023/02/24 08:30:37;;;;;;;33.30;18.45;;;;;;;;;;5031919;28;20033;-61
2023/02/24 08:33:03;;;;;;;30.58;17.52;;;;;;;;;;5032095;28;20123;-65
2023/02/24 08:35:30;;;;;;;34.75;18.67;;;;;;;;;;5050674;28;20043;-59
2023/02/24 08:37:59;;;;;;;29.05;17.77;;;;;;;;;;5051300;28;20031;-67
2023/02/24 08:43:14;;;;;;;30.00;18.05;;;;;;;;;;5061907;28;20036;-67
2023/02/24 08:45:43;;;;;;;28.10;17.50;;;;;;;;;;5046847;28;20465;-67
2023/02/24 08:48:17;;;;;;;31.05;17.58;;;;;;;;;;5041907;28;20365;-61
2023/02/24 08:50:45;;;;;;;29.92;17.40;;;;;;;;;;5046511;28;20538;-64
2023/02/24 08:53:17;;;;;;;27.17;17.15;;;;;;;;;;5063610;28;20055;-72
2023/02/24 08:55:43;;;;;;;;;;;;;;;;;;5069190;28;20028;-61
2023/02/24 08:58:16;;;;;;;33.28;17.30;;;;;;;;;;5038408;28;19920;-64
2023/02/24 09:00:52;;;;;;;30.02;18.30;;;;;;;;;;5030820;28;20384;-73
2023/02/24 09:03:28;;;;;;;30.23;17.85;;;;;;;;;;5030972;28;20018;-64
2023/02/24 09:05:57;;;;;;;30.33;17.40;;;;;;;;;;5038199;28;20113;-61
2023/02/24 09:08:23;;;;;;;34.45;18.92;;;;;;;;;;5037687;28;20021;-61
2023/02/24 09:10:49;;;;;;;31.92;18.83;;;;;;;;;;5039920;28;20033;-63
2023/02/24 09:13:17;;;;;;;27.20;16.30;;;;;;;;;;5040872;28;20037;-64
2023/02/24 09:15:43;;;;;;;27.30;16.17;;;;;;;;;;5045060;28;20366;-63
2023/02/24 09:18:13;;;;;;;28.65;16.67;;;;;;;;;;5050722;28;20079;-71
2023/02/24 09:23:44;;;;;;;28.13;17.05;;;;;;;;;;5041816;28;20554;-61
2023/02/24 09:26:12;;;;;;;29.02;16.50;;;;;;;;;;5050650;28;20032;-73
2023/02/24 09:28:47;;;;;;;26.35;17.20;;;;;;;;;;5044527;28;20039;-62
2023/02/24 09:31:15;;;;;;;26.92;16.17;;;;;;;;;;5041219;28;20033;-65
2023/02/24 09:33:49;;;;;;;27.33;17.20;;;;;;;;;;5039253;28;20369;-61
2023/02/24 09:36:19;;;;;;;29.85;16.20;;;;;;;;;;5039529;28;20108;-73
2023/02/24 09:41:52;;;;;;;29.73;15.85;;;;;;;;;;5040825;28;20037;-62
2023/02/24 09:44:38;;;;;;;23.70;14.18;;;;;;;;;;5039410;28;20108;-62
2023/02/24 09:47:09;;;;;;;25.80;15.07;;;;;;;;;;5040113;28;20113;-67
2023/02/24 09:49:45;;;;;;;24.13;13.83;;;;;;;;;;5038770;28;20033;-61
2023/02/24 09:52:16;;;;;;;25.77;14.15;;;;;;;;;;5038270;28;20087;-61
2023/02/24 09:57:36;;;;;;;22.55;14.02;;;;;;;;;;5039672;28;20477;-62
2023/02/24 10:00:24;;;;;;;25.00;14.88;;;;;;;;;;5036605;28;20040;-63
2023/02/24 10:03:02;;;;;;;27.05;14.95;;;;;;;;;;5038797;28;20388;-61
2023/02/24 10:05:37;;;;;;;27.70;15.40;;;;;;;;;;5038372;28;20025;-61
2023/02/24 10:08:07;;;;;;;36.03;15.95;;;;;;;;;;5038382;28;20021;-70
2023/02/24 10:10:37;;;;;;;24.98;15.52;;;;;;;;;;5039099;28;20020;-61
2023/02/24 10:13:12;;;;;;;26.55;15.13;;;;;;;;;;5040936;28;20053;-62
2023/02/24 10:15:57;;;;;;;29.33;15.07;;;;;;;;;;5043203;28;20033;-61
2023/02/24 10:18:28;;;;;;;29.77;14.77;;;;;;;;;;5039380;28;20036;-66
2023/02/24 10:21:01;;;;;;;27.55;13.52;;;;;;;;;;5038797;28;20025;-72
2023/02/24 10:23:33;;;;;;;26.70;13.52;;;;;;;;;;5033529;28;20040;-62
2023/02/24 10:26:02;;;;;;;41.05;15.27;;;;;;;;;;5046854;28;20056;-60
2023/02/24 10:28:50;;;;;;;32.72;13.95;;;;;;;;;;5046449;28;20025;-60
2023/02/24 10:31:25;;;;;;;33.03;14.05;;;;;;;;;;5035170;28;20030;-60
2023/02/24 10:33:56;;;;;;;28.50;14.15;;;;;;;;;;5030389;28;20036;-61
2023/02/24 10:36:46;;;;;;;24.48;13.43;;;;;;;;;;5028184;28;20026;-60
2023/02/24 10:39:19;;;;;;;29.33;13.32;;;;;;;;;;5029818;28;20569;-71
2023/02/24 10:42:14;;;;;;;29.25;12.15;;;;;;;;;;5030485;28;20037;-62
2023/02/24 10:44:50;;;;;;;24.33;10.98;;;;;;;;;;5033319;28;20044;-61
2023/02/24 10:47:17;;;;;;;21.70;10.98;;;;;;;;;;5048373;28;20029;-60
2023/02/24 10:49:55;;;;;;;24.83;11.20;;;;;;;;;;5042235;28;20025;-61
2023/02/24 10:58:06;;;;;;;17.42;8.98;;;;;;;;;;5056494;28;20040;-61
2023/02/24 11:00:59;;;;;;;20.55;9.25;;;;;;;;;;5057361;28;20032;-60
2023/02/24 11:03:46;;;;;;;22.33;9.27;;;;;;;;;;5057279;28;20033;-61
2023/02/24 11:06:51;;;;;;;18.85;9.23;;;;;;;;;;5057159;28;20051;-74
2023/02/24 11:09:31;;;;;;;20.02;8.93;;;;;;;;;;5055503;28;20037;-61
2023/02/24 11:17:45;;;;;;;16.67;7.68;;;;;;;;;;5059112;28;20098;-62
2023/02/24 11:20:31;;;;;;;16.92;8.00;;;;;;;;;;5053870;28;20052;-61
2023/02/24 11:22:58;;;;;;;18.35;7.57;;;;;;;;;;5059510;28;20145;-61
2023/02/24 11:25:27;;;;;;;19.55;6.97;;;;;;;;;;5070848;28;20231;-71
2023/02/24 11:27:54;;;;;;;17.13;6.82;;;;;;;;;;5065560;28;20123;-61
2023/02/24 11:30:28;;;;;;;19.30;7.35;;;;;;;;;;5060432;28;20035;-63
2023/02/24 11:32:54;;;;;;;19.70;7.30;;;;;;;;;;5060271;28;20056;-76
2023/02/24 11:35:36;;;;;;;17.45;6.93;;;;;;;;;;5045020;28;20039;-61
2023/02/24 11:38:16;;;;;;;18.02;7.22;;;;;;;;;;5040573;28;20052;-61
2023/02/24 11:40:47;;;;;;;18.80;7.25;;;;;;;;;;5042065;28;20167;-69
2023/02/24 11:43:19;;;;;;;18.63;7.28;;;;;;;;;;5037745;28;20030;-63
2023/02/24 11:45:45;;;;;;;;;;;;;;;;;;5036415;28;20099;-60
2023/02/24 11:48:13;;;;;;;14.30;6.43;;;;;;;;;;5042852;28;20049;-61
2023/02/24 11:50:45;;;;;;;19.20;6.50;;;;;;;;;;5037582;28;20231;-60
2023/02/24 11:53:21;;;;;;;16.63;6.38;;;;;;;;;;5033066;28;20040;-64
2023/02/24 11:55:49;;;;;;;14.32;6.43;;;;;;;;;;5033267;28;20033;-63
2023/02/24 11:58:28;;;;;;;18.17;6.85;;;;;;;;;;5032752;28;20127;-68
2023/02/24 12:01:01;;;;;;;24.83;7.53;;;;;;;;;;5032981;28;20079;-62
2023/02/24 12:03:30;;;;;;;22.10;8.95;;;;;;;;;;5032897;28;20057;-60
2023/02/24 12:06:02;;;;;;;18.30;6.18;;;;;;;;;;5032652;28;20120;-61
2023/02/24 12:08:30;;;;;;;17.13;6.65;;;;;;;;;;5032848;28;20146;-62
2023/02/24 12:11:19;;;;;;;15.88;6.10;;;;;;;;;;5032616;28;20037;-61
2023/02/24 12:13:50;;;;;;;14.93;6.10;;;;;;;;;;5030516;28;20076;-74
2023/02/24 12:16:17;;;;;;;15.35;4.95;;;;;;;;;;5029326;28;20037;-61
2023/02/24 12:18:49;;;;;;;18.15;5.75;;;;;;;;;;5030511;28;20038;-61
2023/02/24 12:21:29;;;;;;;16.25;6.43;;;;;;;;;;5029884;28;20358;-66
2023/02/24 12:23:56;;;;;;;15.15;4.82;;;;;;;;;;5030039;28;20052;-69
2023/02/24 12:26:28;;;;;;;19.95;5.75;;;;;;;;;;5030526;28;20029;-61
2023/02/24 12:29:14;;;;;;;17.05;5.30;;;;;;;;;;5029940;28;20116;-61
2023/02/24 12:31:44;;;;;;;14.02;5.28;;;;;;;;;;5030168;28;20109;-60
2023/02/24 12:34:10;;;;;;;18.98;5.20;;;;;;;;;;5030117;28;20045;-60
2023/02/24 12:36:45;;;;;;;11.82;5.13;;;;;;;;;;5030077;28;20033;-60
2023/02/24 12:39:17;;;;;;;13.02;5.18;;;;;;;;;;5029553;28;20505;-60
2023/02/24 12:42:01;;;;;;;17.70;5.30;;;;;;;;;;5029337;28;20099;-63
2023/02/24 12:44:28;;;;;;;14.15;5.07;;;;;;;;;;5030012;28;20042;-60
2023/02/24 12:47:04;;;;;;;13.82;5.43;;;;;;;;;;5030076;28;20026;-73
2023/02/24 12:49:45;;;;;;;14.38;5.25;;;;;;;;;;5029661;28;20409;-61
2023/02/24 12:52:30;;;;;;;13.77;5.32;;;;;;;;;;5032227;28;20026;-60
2023/02/24 12:55:15;;;;;;;15.43;4.50;;;;;;;;;;5032284;28;20481;-60
2023/02/24 12:57:44;;;;;;;14.95;4.88;;;;;;;;;;5031552;28;20167;-60
2023/02/24 13:00:13;;;;;;;18.60;5.25;;;;;;;;;;5043288;28;20025;-60
2023/02/24 13:02:59;;;;;;;11.63;4.28;;;;;;;;;;5051058;28;20068;-60
2023/02/24 13:05:31;;;;;;;12.13;4.40;;;;;;;;;;5041129;28;20035;-73
2023/02/24 13:08:13;;;;;;;14.38;5.43;;;;;;;;;;5041004;28;20033;-61
2023/02/24 13:10:45;;;;;;;15.23;4.47;;;;;;;;;;5040986;28;20037;-61
2023/02/24 13:13:11;;;;;;;14.07;4.57;;;;;;;;;;5037534;28;20045;-61
2023/02/24 13:15:48;;;;;;;11.63;4.85;;;;;;;;;;5039012;28;20025;-73
2023/02/24 13:18:22;;;;;;;14.98;5.28;;;;;;;;;;5040368;28;20366;-61
2023/02/24 13:20:49;;;;;;;13.65;4.90;;;;;;;;;;5039737;28;20108;-61
2023/02/24 13:23:19;;;;;;;13.68;5.07;;;;;;;;;;5039680;28;20021;-77
2023/02/24 13:25:52;;;;;;;14.18;4.70;;;;;;;;;;5039210;28;20021;-73
2023/02/24 13:28:26;;;;;;;14.32;5.10;;;;;;;;;;5037251;28;20091;-61
2023/02/24 13:31:01;;;;;;;17.88;5.38;;;;;;;;;;5039421;28;20036;-61
2023/02/24 13:33:29;;;;;;;16.83;5.78;;;;;;;;;;5039115;28;20120;-74
2023/02/24 13:36:11;;;;;;;14.43;5.10;;;;;;;;;;5039948;28;20040;-60
2023/02/24 13:38:38;;;;;;;14.57;5.72;;;;;;;;;;5030861;28;20031;-60
2023/02/24 13:41:08;;;;;;;14.07;5.40;;;;;;;;;;5030893;28;20054;-70
2023/02/24 13:43:35;;;;;;;12.73;5.68;;;;;;;;;;5030785;28;20441;-62
2023/02/24 13:46:03;;;;;;;15.70;5.55;;;;;;;;;;5030626;28;20476;-64
2023/02/24 13:48:40;;;;;;;15.60;6.00;;;;;;;;;;5030675;28;20040;-61
2023/02/24 13:51:15;;;;;;;12.57;5.25;;;;;;;;;;5030689;28;20100;-60
2023/02/24 13:53:44;;;;;;;16.10;5.90;;;;;;;;;;5030560;28;20136;-61
2023/02/24 13:56:13;;;;;;;11.52;5.45;;;;;;;;;;5030859;28;20025;-60
2023/02/24 13:59:00;;;;;;;16.13;5.72;;;;;;;;;;5030674;28;20034;-60
2023/02/24 14:01:27;;;;;;;15.43;5.63;;;;;;;;;;5030546;28;20528;-59
2023/02/24 14:04:05;;;;;;;15.05;5.55;;;;;;;;;;5030524;28;20029;-61
2023/02/24 14:06:32;;;;;;;19.17;6.47;;;;;;;;;;5030219;28;20085;-62
2023/02/24 14:09:02;;;;;;;15.48;5.43;;;;;;;;;;5030813;28;20055;-60
2023/02/24 14:11:29;;;;;;;17.13;6.47;;;;;;;;;;5030112;28;20458;-60
2023/02/24 14:13:56;;;;;;;14.02;6.07;;;;;;;;;;5030445;28;20382;-60
2023/02/24 14:16:23;;;;;;;14.30;5.75;;;;;;;;;;5030690;28;20048;-60
2023/02/24 14:18:57;;;;;;;16.48;5.93;;;;;;;;;;5030254;28;20062;-60
2023/02/24 14:21:25;;;;;;;18.75;5.80;;;;;;;;;;5030131;28;20064;-59
2023/02/24 14:23:57;;;;;;;14.90;6.00;;;;;;;;;;5030194;28;20050;-64
2023/02/24 14:26:23;;;;;;;16.30;6.22;;;;;;;;;;5030862;28;20036;-68
2023/02/24 14:29:00;;;;;;;18.23;6.05;;;;;;;;;;5030214;28;20029;-60
2023/02/24 14:31:26;;;;;;;17.63;6.32;;;;;;;;;;5030369;28;20026;-66
2023/02/24 14:33:55;;;;;;;17.25;8.00;;;;;;;;;;5029822;28;20124;-60
2023/02/24 14:36:26;;;;;;;20.10;9.32;;;;;;;;;;5030200;28;20036;-61
2023/02/24 14:39:00;;;;;;;17.23;7.13;;;;;;;;;;5028792;28;20026;-61
2023/02/24 14:41:26;;;;;;;14.98;6.60;;;;;;;;;;5030496;28;20049;-72
2023/02/24 14:43:54;;;;;;;17.20;7.70;;;;;;;;;;5030237;28;20029;-68
2023/02/24 14:46:20;;;;;;;17.13;7.13;;;;;;;;;;5033496;28;20512;-61
2023/02/24 14:48:51;;;;;;;18.77;7.13;;;;;;;;;;5033723;28;20080;-62
2023/02/24 14:51:37;;;;;;;17.10;8.40;;;;;;;;;;5034413;28;20030;-61
2023/02/24 14:54:06;;;;;;;20.42;6.60;;;;;;;;;;5033756;28;20112;-60
2023/02/24 14:56:33;;;;;;;17.55;6.68;;;;;;;;;;5033856;28;20025;-64
2023/02/24 14:59:01;;;;;;;19.25;6.63;;;;;;;;;;5034078;28;20090;-68
2023/02/24 15:01:33;;;;;;;20.30;7.38;;;;;;;;;;5034138;28;20035;-64
2023/02/24 15:04:01;;;;;;;13.18;4.78;;;;;;;;;;5034363;28;20091;-69
2023/02/24 15:06:29;;;;;;;17.98;6.00;;;;;;;;;;5033649;28;20052;-67
2023/02/24 15:09:06;;;;;;;21.10;6.30;;;;;;;;;;5033903;28;20029;-65
2023/02/24 15:11:35;;;;;;;21.67;6.03;;;;;;;;;;5033241;28;20515;-72